Time,TemperatureF,DewpointF,PressureIn,WindDirection,WindDirectionDegrees,WindSpeedMPH,WindSpeedGustMPH,Humidity,HourlyPrecipIn,Conditions,Clouds,dailyrainin,SoftwareType,DateUTC
2013-04-17 00:12:00,61.7,56.5,29.89,SSW,213,2.0,4.0,83,0.00,,,0.00,Wunderground v.1.15,2013-04-17 04:12:00,
2013-04-17 00:42:00,61.7,56.8,29.89,SSW,210,3.0,3.0,84,0.00,,,0.00,Wunderground v.1.15,2013-04-17 04:42:00,
2013-04-17 01:12:00,61.8,56.9,29.90,WSW,250,0.0,0.0,84,0.00,,,0.00,Wunderground v.1.15,2013-04-17 05:12:00,
2013-04-17 01:42:00,61.8,56.9,29.90,SW,219,0.0,0.0,84,0.00,,,0.00,Wunderground v.1.15,2013-04-17 05:42:00,
2013-04-17 02:12:00,62.3,57.7,29.90,SSW,210,0.0,0.0,85,0.00,,,0.00,Wunderground v.1.15,2013-04-17 06:12:00,
2013-04-17 02:42:00,62.5,57.9,29.89,South,173,0.0,2.0,85,0.00,,,0.00,Wunderground v.1.15,2013-04-17 06:42:00,
2013-04-17 03:12:00,62.5,58.3,29.89,SW,221,0.0,0.0,86,0.00,,,0.00,Wunderground v.1.15,2013-04-17 07:12:00,
2013-04-17 03:42:00,61.8,57.9,29.90,WSW,240,0.0,0.0,87,0.00,,,0.00,Wunderground v.1.15,2013-04-17 07:42:00,
2013-04-17 04:12:00,61.3,58.0,29.89,WSW,240,0.0,0.0,89,0.00,,,0.00,Wunderground v.1.15,2013-04-17 08:12:00,
2013-04-17 04:42:00,61.0,58.7,29.90,WSW,240,0.0,0.0,92,0.00,,,0.00,Wunderground v.1.15,2013-04-17 08:42:00,
2013-04-17 05:12:00,58.5,55.9,29.91,North,11,2.0,2.0,91,0.00,,,0.00,Wunderground v.1.15,2013-04-17 09:12:00,
2013-04-17 05:42:00,56.0,53.4,29.91,NNE,17,1.0,1.0,91,0.00,,,0.00,Wunderground v.1.15,2013-04-17 09:42:00,
2013-04-17 06:12:00,55.1,51.3,29.92,NNE,17,1.0,1.0,87,0.00,,,0.00,Wunderground v.1.15,2013-04-17 10:12:00,
2013-04-17 06:42:00,54.9,50.2,29.93,NNE,21,1.0,1.0,84,0.00,,,0.00,Wunderground v.1.15,2013-04-17 10:42:00,
2013-04-17 07:12:00,54.6,49.2,29.96,North,5,0.0,3.0,82,0.00,,,0.00,Wunderground v.1.15,2013-04-17 11:12:00,
2013-04-17 07:42:00,54.6,47.9,29.99,NNE,15,1.0,1.0,78,0.00,,,0.00,Wunderground v.1.15,2013-04-17 11:42:00,
2013-04-17 08:12:00,54.8,48.1,29.99,NNE,22,1.0,1.0,78,0.00,,,0.00,Wunderground v.1.15,2013-04-17 12:12:00,
2013-04-17 08:42:00,54.9,47.8,30.00,NNE,30,1.0,2.0,77,0.00,,,0.00,Wunderground v.1.15,2013-04-17 12:42:00,
2013-04-17 09:12:00,57.8,48.5,30.00,North,355,1.0,1.0,71,0.00,,,0.00,Wunderground v.1.15,2013-04-17 13:12:00,
2013-04-17 09:42:00,59.0,47.2,30.00,NE,34,1.0,5.0,65,0.00,,,0.00,Wunderground v.1.15,2013-04-17 13:42:00,
2013-04-17 10:12:00,59.7,46.7,30.00,NNW,346,2.0,3.0,62,0.00,,,0.00,Wunderground v.1.15,2013-04-17 14:12:00,
2013-04-17 10:42:00,59.8,45.9,30.01,NE,34,1.0,3.0,60,0.00,,,0.00,Wunderground v.1.15,2013-04-17 14:42:00,
2013-04-17 11:12:00,62.1,46.2,30.00,NE,39,1.0,3.0,56,0.00,,,0.00,Wunderground v.1.15,2013-04-17 15:12:00,
2013-04-17 11:42:00,62.5,45.1,29.99,NNE,14,1.0,2.0,53,0.00,,,0.00,Wunderground v.1.15,2013-04-17 15:42:00,
2013-04-17 12:12:00,63.5,45.0,29.99,NE,42,2.0,3.0,51,0.00,,,0.00,Wunderground v.1.15,2013-04-17 16:12:00,
2013-04-17 12:42:00,64.2,44.6,29.99,NE,55,2.0,2.0,49,0.00,,,0.00,Wunderground v.1.15,2013-04-17 16:42:00,
2013-04-17 13:12:00,65.6,45.4,29.98,NNE,30,2.0,4.0,48,0.00,,,0.00,Wunderground v.1.15,2013-04-17 17:12:00,
2013-04-17 13:42:00,66.6,45.2,29.98,North,360,2.0,2.0,46,0.00,,,0.00,Wunderground v.1.15,2013-04-17 17:42:00,
2013-04-17 14:12:00,67.1,45.6,29.98,NNE,26,2.0,2.0,46,0.00,,,0.00,Wunderground v.1.15,2013-04-17 18:12:00,
2013-04-17 14:42:00,68.5,45.7,29.98,NNE,15,1.0,2.0,44,0.00,,,0.00,Wunderground v.1.15,2013-04-17 18:42:00,
2013-04-17 15:12:00,68.1,43.5,29.97,NNE,17,1.0,1.0,41,0.00,,,0.00,Wunderground v.1.15,2013-04-17 19:12:00,
2013-04-17 15:42:00,69.1,44.4,29.97,WNW,296,1.0,2.0,41,0.00,,,0.00,Wunderground v.1.15,2013-04-17 19:42:00,
2013-04-17 16:12:00,68.9,42.9,29.97,NE,37,2.0,2.0,39,0.00,,,0.00,Wunderground v.1.15,2013-04-17 20:12:00,
2013-04-17 16:42:00,68.7,43.4,29.96,NE,46,2.0,2.0,40,0.00,,,0.00,Wunderground v.1.15,2013-04-17 20:42:00,
2013-04-17 17:12:00,69.6,44.2,29.97,NNE,16,1.0,1.0,40,0.00,,,0.00,Wunderground v.1.15,2013-04-17 21:12:00,
2013-04-17 17:42:00,69.4,43.4,29.99,NE,34,1.0,1.0,39,0.00,,,0.00,Wunderground v.1.15,2013-04-17 21:42:00,
2013-04-17 18:12:00,70.0,43.2,29.99,NE,46,1.0,1.0,38,0.00,,,0.00,Wunderground v.1.15,2013-04-17 22:12:00,
2013-04-17 18:42:00,68.3,42.4,29.99,NNE,17,1.0,3.0,39,0.00,,,0.00,Wunderground v.1.15,2013-04-17 22:42:00,
2013-04-17 19:12:00,66.8,41.7,30.00,NNE,30,0.0,0.0,40,0.00,,,0.00,Wunderground v.1.15,2013-04-17 23:12:00,
2013-04-17 19:42:00,65.1,41.4,30.01,NNE,31,0.0,1.0,42,0.00,,,0.00,Wunderground v.1.15,2013-04-17 23:42:00,
2013-04-17 20:12:00,63.6,40.7,30.01,NNE,25,1.0,1.0,43,0.00,,,0.00,Wunderground v.1.15,2013-04-18 00:12:00,
2013-04-17 20:42:00,62.6,40.4,30.03,NNE,25,0.0,0.0,44,0.00,,,0.00,Wunderground v.1.15,2013-04-18 00:42:00,
2013-04-17 21:12:00,61.5,39.9,30.05,NNE,24,0.0,0.0,45,0.00,,,0.00,Wunderground v.1.15,2013-04-18 01:12:00,
2013-04-17 21:42:00,60.6,40.2,30.05,NNE,21,0.0,0.0,47,0.00,,,0.00,Wunderground v.1.15,2013-04-18 01:42:00,
2013-04-17 22:12:00,58.9,39.8,30.05,NNE,21,0.0,0.0,49,0.00,,,0.00,Wunderground v.1.15,2013-04-18 02:12:00,
2013-04-17 22:42:00,57.0,40.0,30.04,NNE,21,0.0,0.0,53,0.00,,,0.00,Wunderground v.1.15,2013-04-18 02:42:00,
2013-04-17 23:12:00,55.8,39.4,30.05,NNE,21,0.0,0.0,54,0.00,,,0.00,Wunderground v.1.15,2013-04-18 03:12:00,
2013-04-17 23:42:00,54.7,41.5,30.06,NNE,21,0.0,0.0,61,0.00,,,0.00,Wunderground v.1.15,2013-04-18 03:42:00,